Time;durP1;ratioP1;P1;durP2;ratioP2;P2;SDS_P1;SDS_P2;PMS_P1;PMS_P2;Temp;Humidity;BMP_temperature;BMP_pressure;BME280_temperature;BME280_humidity;BME280_pressure;Samples;Min_cycle;Max_cycle;Signal;HPM_P1;HPM_P2
2022/09/07 00:00:29;;;;;;;1999.90;999.90;;;17.80;99.90;;;;;;5073734;28;20054;-67
2022/09/07 00:02:55;;;;;;;1999.90;999.90;;;17.70;99.90;;;;;;5100404;28;20054;-67
2022/09/07 00:05:20;;;;;;;1999.90;999.90;;;17.70;99.90;;;;;;5088045;28;20028;-65
2022/09/07 00:07:46;;;;;;;1999.90;999.90;;;17.70;99.90;;;;;;5068947;28;20441;-65
2022/09/07 00:10:12;;;;;;;1999.90;999.90;;;17.70;99.90;;;;;;5072290;28;20051;-65
2022/09/07 00:12:38;;;;;;;1999.90;999.90;;;17.70;99.90;;;;;;5089649;28;20063;-65
2022/09/07 00:15:09;;;;;;;1999.90;999.90;;;17.60;99.90;;;;;;5087968;28;20119;-66
2022/09/07 00:17:35;;;;;;;1999.90;999.90;;;17.60;99.90;;;;;;5102276;28;20043;-65
2022/09/07 00:20:01;;;;;;;1999.90;999.90;;;17.60;99.90;;;;;;5089423;28;20059;-64
2022/09/07 00:22:26;;;;;;;1999.90;999.90;;;17.60;99.90;;;;;;5068432;28;20072;-65
2022/09/07 00:24:52;;;;;;;1999.90;999.90;;;17.60;99.90;;;;;;5056283;28;20063;-64
2022/09/07 00:27:17;;;;;;;1999.90;999.90;;;17.60;99.90;;;;;;5088480;28;20488;-66
2022/09/07 00:29:44;;;;;;;1999.90;999.90;;;17.50;99.90;;;;;;5061714;28;20071;-65
2022/09/07 00:32:10;;;;;;;1999.90;999.90;;;17.50;99.90;;;;;;5091450;28;20131;-64
2022/09/07 00:34:35;;;;;;;1999.90;999.90;;;17.50;99.90;;;;;;5066095;28;20591;-64
2022/09/07 00:37:01;;;;;;;1999.90;999.90;;;17.50;99.90;;;;;;5051655;28;20118;-64
2022/09/07 00:39:26;;;;;;;1999.90;999.90;;;17.50;99.90;;;;;;5087884;28;20438;-66
2022/09/07 00:41:52;;;;;;;1999.90;999.90;;;17.50;99.90;;;;;;5095884;28;20040;-65
2022/09/07 00:44:42;;;;;;;1999.90;999.90;;;17.50;99.90;;;;;;5062586;28;20036;-65
2022/09/07 00:47:34;;;;;;;1999.90;999.90;;;17.40;99.90;;;;;;5073236;28;20089;-64
2022/09/07 00:50:23;;;;;;;1999.90;999.90;;;17.50;99.90;;;;;;5073001;28;20035;-64
2022/09/07 00:52:56;;;;;;;1999.90;999.90;;;17.40;99.90;;;;;;5065798;28;20150;-65
2022/09/07 00:55:22;;;;;;;1999.90;999.90;;;17.50;99.90;;;;;;5069412;28;20135;-65
2022/09/07 00:57:51;;;;;;;1999.90;999.90;;;17.50;99.90;;;;;;5070131;28;20130;-64
2022/09/07 01:00:17;;;;;;;1999.90;999.90;;;17.40;99.90;;;;;;5060141;28;20068;-64
2022/09/07 01:02:45;;;;;;;1999.90;999.90;;;17.40;99.90;;;;;;5073564;28;20124;-65
2022/09/07 01:05:48;;;;;;;1999.90;999.90;;;17.40;99.90;;;;;;5083820;28;20047;-64
2022/09/07 01:08:14;;;;;;;1999.90;999.90;;;17.40;99.90;;;;;;4984064;28;20045;-65
2022/09/07 01:10:40;;;;;;;1999.90;999.90;;;17.30;99.90;;;;;;4970969;28;20640;-64
2022/09/07 01:13:06;;;;;;;1999.90;999.90;;;17.30;99.90;;;;;;4997457;28;20227;-65
2022/09/07 01:16:04;;;;;;;1999.90;999.90;;;17.30;99.90;;;;;;4985914;28;21132;-64
2022/09/07 01:19:02;;;;;;;1999.90;999.90;;;17.20;99.90;;;;;;4968612;28;20057;-65
2022/09/07 01:21:53;;;;;;;1999.90;999.90;;;17.20;99.90;;;;;;5001954;28;20601;-64
2022/09/07 01:24:31;;;;;;;1999.90;999.90;;;17.20;99.90;;;;;;4995562;28;20093;-65
2022/09/07 01:27:17;;;;;;;1999.90;999.90;;;17.20;99.90;;;;;;4998764;28;20054;-66
2022/09/07 01:29:56;;;;;;;1999.90;999.90;;;17.20;99.90;;;;;;4995978;28;20600;-65
2022/09/07 01:36:16;;;;;;;1999.90;999.90;;;17.00;99.90;;;;;;5015354;28;20568;-69
2022/09/07 01:38:46;;;;;;;1999.90;999.90;;;16.80;99.90;;;;;;5013356;28;20104;-70
2022/09/07 01:41:14;;;;;;;1999.90;999.90;;;16.80;99.90;;;;;;5007425;28;20052;-69
2022/09/07 01:44:34;;;;;;;1999.90;999.90;;;16.70;99.90;;;;;;5017029;28;20044;-69
2022/09/07 01:47:05;;;;;;;1999.90;999.90;;;16.70;99.90;;;;;;5019916;28;20041;-69
2022/09/07 01:49:37;;;;;;;1999.90;999.90;;;16.70;99.90;;;;;;5080850;28;20048;-69
2022/09/07 01:52:12;;;;;;;1999.90;999.90;;;16.60;99.90;;;;;;5071314;28;20044;-68
2022/09/07 01:54:43;;;;;;;1999.90;999.90;;;16.60;99.90;;;;;;5071527;27;20051;-68
2022/09/07 01:57:25;;;;;;;1999.90;999.90;;;16.60;99.90;;;;;;5087847;28;20067;-68
2022/09/07 02:00:08;;;;;;;1999.90;999.90;;;16.60;99.90;;;;;;5122834;27;20047;-68
2022/09/07 02:03:06;;;;;;;1999.90;999.90;;;16.60;99.90;;;;;;5102232;28;20059;-67
2022/09/07 02:05:38;;;;;;;1999.90;999.90;;;16.60;99.90;;;;;;5031915;28;20045;-68
2022/09/07 02:08:04;;;;;;;1999.90;999.90;;;16.50;99.90;;;;;;5013066;28;20049;-68
2022/09/07 02:10:50;;;;;;;1999.90;999.90;;;16.50;99.90;;;;;;5034009;28;20052;-68
2022/09/07 02:13:25;;;;;;;1999.90;999.90;;;16.50;99.90;;;;;;5029277;28;20522;-68
2022/09/07 02:15:56;;;;;;;1999.90;999.90;;;16.50;99.90;;;;;;5030029;28;20562;-67
2022/09/07 02:18:25;;;;;;;1999.90;999.90;;;16.50;99.90;;;;;;5048359;28;20048;-67
2022/09/07 02:20:55;;;;;;;1999.90;999.90;;;16.50;99.90;;;;;;5042659;28;20501;-67
2022/09/07 02:23:25;;;;;;;1999.90;999.90;;;16.50;99.90;;;;;;5032911;28;20509;-67
2022/09/07 02:25:55;;;;;;;1999.90;999.90;;;16.50;99.90;;;;;;5028837;28;20049;-67
2022/09/07 02:28:28;;;;;;;1999.90;999.90;;;16.50;99.90;;;;;;5038165;28;20545;-67
2022/09/07 02:30:54;;;;;;;1999.90;999.90;;;16.50;99.90;;;;;;5046501;28;20076;-67
2022/09/07 02:33:20;;;;;;;1999.90;999.90;;;16.40;99.90;;;;;;5031805;28;20072;-67
2022/09/07 02:35:46;;;;;;;1999.90;999.90;;;16.40;99.90;;;;;;5014208;28;20576;-67
2022/09/07 02:38:11;;;;;;;1999.90;999.90;;;16.40;99.90;;;;;;5031064;28;20052;-67
2022/09/07 02:40:37;;;;;;;1999.90;999.90;;;16.40;99.90;;;;;;5026946;28;20049;-67
2022/09/07 02:43:06;;;;;;;1999.90;999.90;;;16.40;99.90;;;;;;5094211;28;20062;-68
2022/09/07 02:45:56;;;;;;;1999.90;999.90;;;16.40;99.90;;;;;;5105983;28;20876;-68
2022/09/07 02:48:53;;;;;;;1999.90;999.90;;;16.40;99.90;;;;;;5098855;28;20112;-67
2022/09/07 02:51:39;;;;;;;1999.90;999.90;;;16.40;99.90;;;;;;5070772;28;20097;-67
2022/09/07 02:54:22;;;;;;;1999.90;999.90;;;16.40;99.90;;;;;;5084501;28;20044;-67
2022/09/07 02:57:09;;;;;;;1999.90;999.90;;;16.40;99.90;;;;;;5104937;27;20039;-67
2022/09/07 02:59:53;;;;;;;1999.90;999.90;;;16.40;99.90;;;;;;5092220;28;20051;-68
2022/09/07 03:02:23;;;;;;;1999.90;999.90;;;16.40;99.90;;;;;;5091687;28;20089;-68
2022/09/07 03:05:27;;;;;;;1999.90;999.90;;;16.40;99.90;;;;;;5098710;28;20035;-68
2022/09/07 03:08:15;;;;;;;1999.90;999.90;;;16.40;99.90;;;;;;5092135;28;20043;-68
2022/09/07 03:10:41;;;;;;;1999.90;999.90;;;16.40;99.90;;;;;;5091374;28;20040;-68
2022/09/07 03:13:08;;;;;;;1999.90;999.90;;;16.40;99.90;;;;;;5110558;28;20047;-67
2022/09/07 03:15:33;;;;;;;1999.90;999.90;;;16.40;99.90;;;;;;5083852;28;20079;-67
2022/09/07 03:17:59;;;;;;;1999.90;999.90;;;16.30;99.90;;;;;;5081997;28;20511;-68
2022/09/07 03:20:24;;;;;;;1999.90;999.90;;;16.40;99.90;;;;;;5096440;28;20042;-68
2022/09/07 03:22:51;;;;;;;1999.90;999.90;;;16.40;99.90;;;;;;5110355;28;20036;-67
2022/09/07 03:25:17;;;;;;;1999.90;999.90;;;16.40;99.90;;;;;;5107504;27;20035;-67
2022/09/07 03:27:43;;;;;;;1999.90;999.90;;;16.30;99.90;;;;;;5095880;28;20043;-67
2022/09/07 03:30:10;;;;;;;1999.90;999.90;;;16.30;99.90;;;;;;5092121;28;20158;-67
2022/09/07 03:32:36;;;;;;;1999.90;999.90;;;16.30;99.90;;;;;;5082898;28;20067;-67
2022/09/07 03:35:04;;;;;;;1999.90;999.90;;;16.30;99.90;;;;;;5070636;28;20131;-68
2022/09/07 03:37:30;;;;;;;1999.90;999.90;;;16.30;99.90;;;;;;5093297;28;20043;-68
2022/09/07 03:39:56;;;;;;;1999.90;999.90;;;16.30;99.90;;;;;;5064911;28;20054;-68
2022/09/07 03:42:21;;;;;;;1999.90;999.90;;;16.30;99.90;;;;;;5067094;28;20051;-68
2022/09/07 03:44:50;;;;;;;1999.90;999.90;;;16.30;99.90;;;;;;5071338;28;20042;-68
2022/09/07 03:47:16;;;;;;;1999.90;999.90;;;16.30;99.90;;;;;;5066716;28;20452;-68
2022/09/07 03:49:42;;;;;;;1999.90;999.90;;;16.30;99.90;;;;;;5070442;28;20058;-67
2022/09/07 03:52:07;;;;;;;1999.90;999.90;;;16.30;99.90;;;;;;5071824;28;20122;-67
2022/09/07 03:54:33;;;;;;;1999.90;999.90;;;16.30;99.90;;;;;;5073280;28;20066;-67
2022/09/07 03:56:58;;;;;;;1999.90;999.90;;;16.30;99.90;;;;;;5071536;28;20396;-68
2022/09/07 03:59:24;;;;;;;1999.90;999.90;;;16.30;99.90;;;;;;5054781;28;20044;-67
2022/09/07 04:01:50;;;;;;;1999.90;999.90;;;16.30;99.90;;;;;;5075276;28;20058;-67
2022/09/07 04:04:15;;;;;;;1999.90;999.90;;;16.30;99.90;;;;;;5071114;28;20438;-68
2022/09/07 04:06:41;;;;;;;1999.90;999.90;;;16.30;99.90;;;;;;5070788;28;20082;-67
2022/09/07 04:09:10;;;;;;;1999.90;999.90;;;16.30;99.90;;;;;;5069251;28;20117;-67
2022/09/07 04:11:36;;;;;;;1999.90;999.90;;;16.40;99.90;;;;;;5066280;28;20039;-67
2022/09/07 04:14:02;;;;;;;1999.90;999.90;;;16.30;99.90;;;;;;5089419;28;20035;-67
2022/09/07 04:16:28;;;;;;;1999.90;999.90;;;16.30;99.90;;;;;;5087991;28;20079;-67
2022/09/07 04:18:53;;;;;;;1999.90;999.90;;;16.30;99.90;;;;;;5071752;28;20549;-67
2022/09/07 04:21:23;;;;;;;1999.90;999.90;;;16.30;99.90;;;;;;5098082;28;20126;-67
2022/09/07 04:23:48;;;;;;;1999.90;999.90;;;16.30;99.90;;;;;;5070871;28;20040;-67
2022/09/07 04:26:26;;;;;;;1999.90;999.90;;;16.30;99.90;;;;;;5062860;28;20082;-67
2022/09/07 04:28:53;;;;;;;1999.90;999.90;;;16.30;99.90;;;;;;5059322;28;20079;-67
2022/09/07 04:31:19;;;;;;;1999.90;999.90;;;16.30;99.90;;;;;;5068476;28;20048;-67
2022/09/07 04:33:47;;;;;;;1999.90;999.90;;;16.20;99.90;;;;;;5072210;28;20140;-68
2022/09/07 04:36:13;;;;;;;1999.90;999.90;;;16.20;99.90;;;;;;5089106;28;20043;-68
2022/09/07 04:38:39;;;;;;;1999.90;999.90;;;16.20;99.90;;;;;;5037155;28;20047;-67
2022/09/07 04:41:17;;;;;;;1999.90;999.90;;;16.10;99.90;;;;;;5075747;28;20032;-68
2022/09/07 04:43:43;;;;;;;1999.90;999.90;;;16.10;99.90;;;;;;5069409;28;20521;-68
2022/09/07 04:46:15;;;;;;;1999.90;999.90;;;16.10;99.90;;;;;;5060831;28;20050;-67
2022/09/07 04:48:40;;;;;;;1999.90;999.90;;;16.10;99.90;;;;;;5090094;28;20077;-67
2022/09/07 04:51:09;;;;;;;1999.90;999.90;;;16.00;99.90;;;;;;5051471;28;20235;-68
2022/09/07 04:53:36;;;;;;;1999.90;999.90;;;16.00;99.90;;;;;;5104298;28;20044;-67
2022/09/07 04:56:02;;;;;;;1999.90;999.90;;;16.00;99.90;;;;;;5053571;28;20047;-67
2022/09/07 04:58:27;;;;;;;1999.90;999.90;;;16.00;99.90;;;;;;5085578;28;20436;-67
2022/09/07 05:00:53;;;;;;;1999.90;999.90;;;16.00;99.90;;;;;;5071542;28;20067;-67
2022/09/07 05:03:19;;;;;;;1999.90;999.90;;;16.00;99.90;;;;;;5069278;28;20067;-67
2022/09/07 05:05:44;;;;;;;1999.90;999.90;;;16.00;99.90;;;;;;5084609;28;20515;-68
2022/09/07 05:08:11;;;;;;;1999.90;999.90;;;16.00;99.90;;;;;;5069662;28;20128;-68
2022/09/07 05:10:36;;;;;;;1999.90;999.90;;;16.00;99.90;;;;;;5080812;28;20118;-67
2022/09/07 05:13:02;;;;;;;1999.90;999.90;;;16.00;99.90;;;;;;5068766;28;20156;-67
2022/09/07 05:15:29;;;;;;;1999.90;999.90;;;16.00;99.90;;;;;;5086564;28;20072;-69
2022/09/07 05:17:55;;;;;;;1999.90;999.90;;;16.10;99.90;;;;;;5081359;28;20127;-68
2022/09/07 05:20:21;;;;;;;1999.90;999.90;;;16.10;99.90;;;;;;5088947;28;20381;-68
2022/09/07 05:22:47;;;;;;;1999.90;999.90;;;16.10;99.90;;;;;;5088441;28;20055;-69
2022/09/07 05:25:13;;;;;;;1999.90;999.90;;;16.20;99.90;;;;;;5091274;28;20404;-68
2022/09/07 05:27:38;;;;;;;1999.90;999.90;;;16.20;99.90;;;;;;5055514;28;20040;-69
2022/09/07 05:30:04;;;;;;;1999.90;999.90;;;16.20;99.90;;;;;;5061390;28;20044;-68
2022/09/07 05:32:30;;;;;;;1999.90;999.90;;;16.20;99.90;;;;;;5070305;28;20083;-68
2022/09/07 05:34:57;;;;;;;1999.90;999.90;;;16.20;99.90;;;;;;5054863;28;20062;-68
2022/09/07 05:37:22;;;;;;;1999.90;999.90;;;16.20;99.90;;;;;;5091550;28;20051;-68
2022/09/07 05:39:48;;;;;;;1999.90;999.90;;;16.20;99.90;;;;;;5091009;28;20043;-68
2022/09/07 05:42:13;;;;;;;1999.90;999.90;;;16.20;99.90;;;;;;5091137;28;20469;-68
2022/09/07 05:44:39;;;;;;;1999.90;999.90;;;16.20;99.90;;;;;;5075899;28;20040;-68
2022/09/07 05:47:05;;;;;;;1999.90;999.90;;;16.20;99.90;;;;;;5073114;28;20032;-68
2022/09/07 05:49:31;;;;;;;1999.90;999.90;;;16.20;99.90;;;;;;5091159;28;20096;-68
2022/09/07 05:51:56;;;;;;;1999.90;999.90;;;16.20;99.90;;;;;;5055007;28;20066;-68
2022/09/07 05:54:22;;;;;;;1999.90;999.90;;;16.20;99.90;;;;;;5085974;28;20066;-68
2022/09/07 05:56:48;;;;;;;1999.90;999.90;;;16.20;99.90;;;;;;5056309;28;20068;-68
2022/09/07 05:59:13;;;;;;;1999.90;999.90;;;16.20;99.90;;;;;;5070365;28;20048;-69
2022/09/07 06:01:39;;;;;;;1999.90;999.90;;;16.30;99.90;;;;;;5053185;28;20124;-69
2022/09/07 06:04:04;;;;;;;1999.90;999.90;;;16.30;99.90;;;;;;5072918;28;20101;-68
2022/09/07 06:06:30;;;;;;;1999.90;999.90;;;16.30;99.90;;;;;;5073293;28;20510;-68
2022/09/07 06:08:56;;;;;;;1999.90;999.90;;;16.30;99.90;;;;;;5039245;28;20043;-68
2022/09/07 06:11:24;;;;;;;1999.90;999.90;;;16.30;99.90;;;;;;5074750;28;20480;-68
2022/09/07 06:13:50;;;;;;;1999.90;999.90;;;16.40;99.90;;;;;;5091933;28;20080;-69
2022/09/07 06:16:17;;;;;;;1999.90;999.90;;;16.40;99.90;;;;;;5088474;28;20040;-68
2022/09/07 06:18:47;;;;;;;1999.90;999.90;;;16.50;99.90;;;;;;5073061;28;20406;-68
2022/09/07 06:21:17;;;;;;;1999.90;999.90;;;16.50;99.90;;;;;;5101459;28;20539;-69
2022/09/07 06:23:44;;;;;;;1999.90;999.90;;;16.60;99.90;;;;;;5055774;28;20415;-68
2022/09/07 06:26:10;;;;;;;1999.90;999.90;;;16.70;99.90;;;;;;5065251;28;20032;-68
2022/09/07 06:28:39;;;;;;;1999.90;999.90;;;16.70;99.90;;;;;;5066602;28;20508;-68
2022/09/07 06:31:07;;;;;;;1999.90;999.90;;;16.70;99.90;;;;;;5071891;28;20388;-67
2022/09/07 06:33:34;;;;;;;1999.90;999.90;;;16.70;99.90;;;;;;5091627;28;20083;-68
2022/09/07 06:36:02;;;;;;;1999.90;999.90;;;16.70;99.90;;;;;;5070249;28;20071;-67
2022/09/07 06:38:33;;;;;;;1999.90;999.90;;;16.80;99.90;;;;;;5095335;28;20051;-68
2022/09/07 06:41:29;;;;;;;1999.90;999.90;;;16.80;99.90;;;;;;5076697;28;20679;-68
2022/09/07 06:43:56;;;;;;;1999.90;999.90;;;16.80;99.90;;;;;;5076348;28;20090;-67
2022/09/07 06:46:22;;;;;;;1999.90;999.90;;;16.70;99.90;;;;;;5090614;28;20040;-68
2022/09/07 06:48:54;;;;;;;1999.90;999.90;;;16.70;99.90;;;;;;5089233;28;20043;-68
2022/09/07 06:51:25;;;;;;;1999.90;999.90;;;16.70;99.90;;;;;;5072010;28;20432;-67
2022/09/07 06:53:55;;;;;;;1999.90;999.90;;;16.70;99.90;;;;;;5070018;28;20395;-67
2022/09/07 06:56:20;;;;;;;1999.90;999.90;;;16.70;99.90;;;;;;5069882;28;20051;-68
2022/09/07 06:58:46;;;;;;;1999.90;999.90;;;16.70;99.90;;;;;;5055536;28;20044;-67
2022/09/07 07:01:12;;;;;;;1999.90;999.90;;;16.70;99.90;;;;;;5071384;28;20036;-68
2022/09/07 07:03:39;;;;;;;1999.90;999.90;;;16.70;99.90;;;;;;5090105;28;20036;-67
2022/09/07 07:06:05;;;;;;;1999.90;999.90;;;16.60;99.90;;;;;;5071784;28;20040;-67
2022/09/07 07:08:31;;;;;;;1999.90;999.90;;;16.70;99.90;;;;;;5085843;28;20422;-68
2022/09/07 07:11:04;;;;;;;1999.90;999.90;;;16.70;99.90;;;;;;5090360;28;20047;-67
2022/09/07 07:13:30;;;;;;;1999.90;999.90;;;16.60;99.90;;;;;;5048548;28;20089;-67
2022/09/07 07:16:06;;;;;;;1999.90;999.90;;;16.70;99.90;;;;;;5077919;28;20146;-67
2022/09/07 07:18:32;;;;;;;1999.90;999.90;;;16.70;99.90;;;;;;5066259;28;20093;-68
2022/09/07 07:21:01;;;;;;;1999.90;999.90;;;16.70;99.90;;;;;;5076627;28;20047;-67
2022/09/07 07:23:27;;;;;;;1999.90;999.90;;;16.70;99.90;;;;;;5083807;28;20048;-67
2022/09/07 07:25:52;;;;;;;1999.90;999.90;;;16.70;99.90;;;;;;5065130;28;20040;-68
2022/09/07 07:28:18;;;;;;;1999.90;999.90;;;16.70;99.90;;;;;;5084546;28;20102;-68
2022/09/07 07:30:43;;;;;;;1999.90;999.90;;;16.70;99.90;;;;;;5067919;28;20074;-67
2022/09/07 07:33:10;;;;;;;1999.90;999.90;;;16.70;99.90;;;;;;5087829;28;20123;-67
2022/09/07 07:35:35;;;;;;;1999.90;999.90;;;16.80;99.90;;;;;;5088849;28;20118;-67
2022/09/07 07:38:01;;;;;;;1999.90;999.90;;;16.80;99.90;;;;;;5051687;28;20126;-67
2022/09/07 07:40:27;;;;;;;1999.90;999.90;;;16.80;99.90;;;;;;5084037;28;20044;-68
2022/09/07 07:42:53;;;;;;;1999.90;999.90;;;16.90;99.90;;;;;;5081792;28;20048;-68
2022/09/07 07:45:19;;;;;;;1999.90;999.90;;;16.90;99.90;;;;;;5083796;28;20586;-67
2022/09/07 07:47:50;;;;;;;1999.90;999.90;;;17.00;99.90;;;;;;5046083;28;20040;-68
2022/09/07 07:50:16;;;;;;;1999.90;999.90;;;17.00;99.90;;;;;;5066025;28;20127;-67
2022/09/07 07:52:41;;;;;;;1999.90;999.90;;;17.10;99.90;;;;;;5059076;28;20119;-67
2022/09/07 07:55:07;;;;;;;1999.90;999.90;;;17.20;99.90;;;;;;5069068;28;20050;-66
2022/09/07 07:57:33;;;;;;;1999.90;999.90;;;17.30;99.90;;;;;;5082759;28;20123;-67
2022/09/07 07:59:59;;;;;;;1999.90;999.90;;;17.40;99.90;;;;;;5070915;28;20122;-67
2022/09/07 08:02:25;;;;;;;1999.90;999.90;;;17.50;99.90;;;;;;5086379;28;20044;-67
2022/09/07 08:04:51;;;;;;;1999.90;999.90;;;17.40;99.90;;;;;;5079729;28;20063;-67
2022/09/07 08:07:18;;;;;;;1999.90;999.90;;;17.50;99.90;;;;;;5068506;28;20056;-67
2022/09/07 08:09:45;;;;;;;1999.90;999.90;;;17.60;99.90;;;;;;5059871;28;20052;-67
2022/09/07 08:12:16;;;;;;;1999.90;999.90;;;17.60;99.90;;;;;;5067369;28;20077;-67
2022/09/07 08:14:42;;;;;;;1999.90;999.90;;;17.60;99.90;;;;;;5088877;28;20509;-67
2022/09/07 08:17:10;;;;;;;1999.90;999.90;;;17.60;99.90;;;;;;5066537;28;20131;-67
2022/09/07 08:19:36;;;;;;;1999.90;999.90;;;17.60;99.90;;;;;;5083525;28;20040;-67
2022/09/07 08:22:02;;;;;;;1999.90;999.90;;;17.60;99.90;;;;;;5067406;28;20101;-66
2022/09/07 08:24:30;;;;;;;1999.90;999.90;;;17.60;99.90;;;;;;5076235;28;20051;-66
2022/09/07 08:26:55;;;;;;;1999.90;999.90;;;17.70;99.90;;;;;;5054163;28;20036;-66
2022/09/07 08:29:21;;;;;;;1999.90;999.90;;;17.70;99.90;;;;;;5063024;28;20512;-67
2022/09/07 08:31:47;;;;;;;1999.90;999.90;;;17.80;99.90;;;;;;5059976;28;20068;-67
2022/09/07 08:34:12;;;;;;;1999.90;999.90;;;17.80;99.90;;;;;;5066985;28;20491;-66
2022/09/07 08:36:38;;;;;;;1999.90;999.90;;;17.80;99.90;;;;;;5061734;28;20044;-67
2022/09/07 08:39:04;;;;;;;1999.90;999.90;;;17.80;99.90;;;;;;5064119;28;20075;-67
2022/09/07 08:42:12;;;;;;;1999.90;999.90;;;17.90;99.90;;;;;;5087899;28;20515;-66
2022/09/07 08:44:43;;;;;;;1999.90;999.90;;;18.00;99.90;;;;;;5066128;28;20118;-67
2022/09/07 08:47:33;;;;;;;1999.90;999.90;;;18.10;99.90;;;;;;5061773;28;20043;-66
2022/09/07 08:50:03;;;;;;;1999.90;999.90;;;18.20;99.90;;;;;;5057175;28;20065;-66
2022/09/07 08:52:50;;;;;;;1999.90;999.90;;;18.30;99.90;;;;;;5067013;28;20123;-67
2022/09/07 08:55:25;;;;;;;1999.90;999.90;;;18.40;99.90;;;;;;5068859;28;20197;-66
2022/09/07 08:58:16;;;;;;;1999.90;999.90;;;18.40;99.90;;;;;;5065068;28;20043;-66
2022/09/07 09:00:42;;;;;;;1999.90;999.90;;;18.60;99.90;;;;;;5096257;28;20044;-66
2022/09/07 09:03:35;;;;;;;1999.90;999.90;;;18.90;99.90;;;;;;5085935;28;20040;-66
2022/09/07 09:06:17;;;;;;;1999.90;999.90;;;19.00;99.90;;;;;;5059508;28;20492;-66
2022/09/07 09:08:48;;;;;;;1999.90;999.90;;;19.00;99.90;;;;;;5075630;28;20044;-67
2022/09/07 09:11:52;;;;;;;1999.90;999.90;;;19.10;99.90;;;;;;5067501;28;20050;-66
2022/09/07 09:14:35;;;;;;;1999.90;999.90;;;19.20;99.90;;;;;;5081488;28;20052;-66
2022/09/07 09:17:11;;;;;;;1999.90;999.90;;;19.20;99.90;;;;;;5086256;28;20054;-66
2022/09/07 09:20:04;;;;;;;1999.90;999.90;;;19.20;99.90;;;;;;5061637;28;20503;-66
2022/09/07 09:22:30;;;;;;;1999.90;999.90;;;19.20;99.90;;;;;;5058416;28;20507;-66
2022/09/07 09:25:23;;;;;;;1999.90;999.90;;;19.40;99.90;;;;;;5085699;28;20032;-66
2022/09/07 09:27:49;;;;;;;1999.90;999.90;;;19.80;99.90;;;;;;5055801;28;20038;-66
2022/09/07 09:30:18;;;;;;;1999.90;999.90;;;20.00;99.90;;;;;;5069402;28;20048;-66
2022/09/07 09:32:46;;;;;;;1999.90;999.90;;;20.30;99.90;;;;;;5087871;28;20416;-66
2022/09/07 09:35:30;;;;;;;1999.90;999.90;;;20.60;99.90;;;;;;5085227;28;20036;-66
2022/09/07 09:37:59;;;;;;;1999.90;999.90;;;20.90;99.90;;;;;;5087719;28;20032;-66
2022/09/07 09:40:34;;;;;;;1999.90;999.90;;;21.30;99.90;;;;;;5087674;28;20403;-66
2022/09/07 09:43:26;;;;;;;1999.90;999.90;;;21.30;99.90;;;;;;5048656;28;20094;-66
2022/09/07 09:45:55;;;;;;;1999.90;999.90;;;21.20;99.90;;;;;;5069349;28;20750;-65
2022/09/07 09:48:33;;;;;;;1999.90;999.90;;;20.90;99.90;;;;;;5069245;28;20632;-66
2022/09/07 09:51:01;;;;;;;1999.90;999.90;;;21.00;99.90;;;;;;5083539;28;20414;-66
2022/09/07 09:53:31;;;;;;;1999.90;999.90;;;21.20;99.90;;;;;;5088065;28;20133;-66
2022/09/07 09:56:02;;;;;;;1999.90;999.90;;;21.60;99.90;;;;;;5048393;28;20056;-66
2022/09/07 09:58:33;;;;;;;1999.90;999.90;;;21.70;99.90;;;;;;5087537;28;20557;-66
2022/09/07 10:01:02;;;;;;;1999.90;999.90;;;21.90;99.90;;;;;;5087917;28;20499;-66
2022/09/07 10:03:33;;;;;;;1999.90;999.90;;;21.80;99.90;;;;;;5062527;28;20047;-66
2022/09/07 10:06:12;;;;;;;1999.90;999.90;;;21.70;99.90;;;;;;5053129;28;20032;-66
2022/09/07 10:08:56;;;;;;;1999.90;999.90;;;21.70;99.90;;;;;;5087727;28;20152;-66
2022/09/07 10:11:50;;;;;;;1999.90;999.90;;;21.80;99.90;;;;;;5064558;28;20048;-66
2022/09/07 10:14:27;;;;;;;1999.90;999.90;;;21.90;99.90;;;;;;5063633;28;20044;-66
2022/09/07 10:16:53;;;;;;;1999.90;999.90;;;22.00;99.90;;;;;;5090968;28;20111;-66
2022/09/07 10:19:34;;;;;;;1999.90;999.90;;;22.40;99.90;;;;;;5048370;28;20127;-66
2022/09/07 10:22:19;;;;;;;1999.90;999.90;;;22.70;99.90;;;;;;5055772;28;20094;-66
2022/09/07 10:24:45;;;;;;;1999.90;999.90;;;22.90;99.90;;;;;;5090933;28;20514;-66
2022/09/07 10:27:27;;;;;;;1999.90;999.90;;;23.20;99.90;;;;;;5077550;28;20033;-66
2022/09/07 10:29:53;;;;;;;1999.90;999.90;;;23.40;99.90;;;;;;5072231;28;20040;-66
2022/09/07 10:32:31;;;;;;;1999.90;999.90;;;23.60;99.90;;;;;;5047672;28;20051;-66
2022/09/07 10:35:00;;;;;;;1999.90;999.90;;;23.80;99.90;;;;;;5077470;28;20040;-66
2022/09/07 10:37:39;;;;;;;1999.90;999.90;;;24.00;99.90;;;;;;5091937;28;20032;-66
2022/09/07 10:40:28;;;;;;;1999.90;999.90;;;24.00;99.90;;;;;;5099711;28;20089;-66
2022/09/07 10:43:28;;;;;;;1999.90;999.90;;;23.90;99.90;;;;;;5076303;28;20058;-66
2022/09/07 10:46:02;;;;;;;1999.90;999.90;;;23.70;99.90;;;;;;5090416;28;20044;-66
2022/09/07 10:48:49;;;;;;;1999.90;999.90;;;23.40;99.90;;;;;;5088327;28;20165;-66
2022/09/07 10:51:22;;;;;;;1999.90;999.90;;;23.30;99.90;;;;;;5092473;28;20120;-66
2022/09/07 10:54:08;;;;;;;1999.90;999.90;;;23.50;99.90;;;;;;5071144;28;20039;-66
2022/09/07 10:56:57;;;;;;;1999.90;999.90;;;23.70;99.90;;;;;;5066991;28;20147;-66
2022/09/07 10:59:40;;;;;;;1999.90;999.90;;;24.10;99.90;;;;;;5065174;28;20043;-66
2022/09/07 11:02:31;;;;;;;1999.90;999.90;;;24.30;99.90;;;;;;5090462;28;20488;-66
2022/09/07 11:04:59;;;;;;;1999.90;999.90;;;24.30;99.90;;;;;;5070148;28;20073;-66
2022/09/07 11:07:52;;;;;;;1999.90;999.90;;;24.40;99.90;;;;;;5060869;28;20055;-66
2022/09/07 11:10:44;;;;;;;1999.90;999.90;;;24.70;99.90;;;;;;5067963;28;20377;-68
2022/09/07 11:13:14;;;;;;;1999.90;999.90;;;25.00;99.90;;;;;;5082624;28;20048;-66
2022/09/07 11:15:47;;;;;;;1999.90;999.90;;;25.10;99.90;;;;;;5049475;28;20044;-66
2022/09/07 11:18:23;;;;;;;1999.90;999.90;;;25.20;99.90;;;;;;5089808;28;20036;-66
2022/09/07 11:20:55;;;;;;;1999.90;999.90;;;25.10;99.90;;;;;;5069747;28;20040;-66
2022/09/07 11:23:44;;;;;;;1999.90;999.90;;;25.00;99.90;;;;;;5068585;28;20093;-66
2022/09/07 11:26:21;;;;;;;1999.90;999.90;;;24.80;99.90;;;;;;5082286;28;20043;-67
2022/09/07 11:29:08;;;;;;;1999.90;999.90;;;24.80;99.90;;;;;;5069804;28;20095;-66
2022/09/07 11:32:05;;;;;;;1999.90;999.90;;;24.80;99.90;;;;;;5097294;28;20054;-66
2022/09/07 11:34:39;;;;;;;1999.90;999.90;;;24.80;99.90;;;;;;5092710;28;20083;-67
2022/09/07 11:37:20;;;;;;;1999.90;999.90;;;24.90;99.90;;;;;;5066969;28;20055;-66
2022/09/07 11:39:55;;;;;;;1999.90;999.90;;;25.00;99.90;;;;;;5082319;28;20729;-66
2022/09/07 11:42:45;;;;;;;1999.90;999.90;;;25.10;99.90;;;;;;5091871;28;20071;-66
2022/09/07 11:45:29;;;;;;;1999.90;999.90;;;25.40;99.90;;;;;;5086392;28;20047;-66
2022/09/07 11:48:12;;;;;;;1999.90;999.90;;;25.50;99.90;;;;;;5065688;28;20416;-66
2022/09/07 11:50:45;;;;;;;1999.90;999.90;;;25.70;99.90;;;;;;5074137;28;20059;-66
2022/09/07 11:53:17;;;;;;;1999.90;999.90;;;25.90;99.90;;;;;;5093121;28;20050;-66
2022/09/07 11:55:47;;;;;;;1999.90;999.90;;;25.80;99.90;;;;;;5068507;28;20047;-66
2022/09/07 11:58:21;;;;;;;1999.90;999.90;;;25.40;99.90;;;;;;5081647;28;20101;-66
2022/09/07 12:01:20;;;;;;;1999.90;999.90;;;24.90;99.90;;;;;;5062663;28;20124;-66
2022/09/07 12:04:04;;;;;;;1999.90;999.90;;;24.60;99.90;;;;;;5062670;28;20044;-66
2022/09/07 12:06:55;;;;;;;1999.90;999.90;;;24.30;99.90;;;;;;5061758;28;20066;-67
2022/09/07 12:09:58;;;;;;;1999.90;999.90;;;24.40;99.90;;;;;;5078288;28;20074;-66
2022/09/07 12:12:49;;;;;;;1999.90;999.90;;;24.80;99.90;;;;;;5067256;28;20538;-66
2022/09/07 12:15:36;;;;;;;1999.90;999.90;;;25.30;99.90;;;;;;5046586;28;20051;-67
2022/09/07 12:18:28;;;;;;;1999.90;999.90;;;25.60;99.90;;;;;;5058625;28;20052;-66
2022/09/07 12:20:54;;;;;;;1999.90;999.90;;;25.70;99.90;;;;;;5061994;28;20769;-66
2022/09/07 12:23:27;;;;;;;1999.90;999.90;;;25.70;99.90;;;;;;5059850;28;20055;-66
2022/09/07 12:26:31;;;;;;;1999.90;999.90;;;25.90;99.90;;;;;;5090130;28;20093;-66
2022/09/07 12:28:57;;;;;;;1999.90;999.90;;;26.20;99.90;;;;;;5080853;28;20067;-67